Time;durP1;ratioP1;P1;durP2;ratioP2;P2;SDS_P1;SDS_P2;PMS_P1;PMS_P2;Temp;Humidity;BMP_temperature;BMP_pressure;BME280_temperature;BME280_humidity;BME280_pressure;Samples;Min_cycle;Max_cycle;Signal;HPM_P1;HPM_P2
2021/11/11 00:02:11;;;;;;;8.30;5.00;;;;;;;3.50;47.99;102318.78;1789758;80;21066;-69
2021/11/11 00:04:38;;;;;;;8.88;5.25;;;;;;;3.50;48.04;102322.75;1789633;80;21493;-69
2021/11/11 00:07:05;;;;;;;9.23;5.55;;;;;;;3.49;48.06;102315.82;1789806;80;20983;-69
2021/11/11 00:09:35;;;;;;;7.95;4.87;;;;;;;3.49;48.15;102313.18;1789163;80;21145;-68
2021/11/11 00:12:02;;;;;;;8.23;4.97;;;;;;;3.41;48.32;102314.48;1785629;80;21022;-69
2021/11/11 00:14:31;;;;;;;7.50;4.28;;;;;;;3.41;48.40;102314.48;1784356;80;21145;-68
2021/11/11 00:16:58;;;;;;;8.48;4.97;;;;;;;3.42;48.45;102316.16;1770442;80;21538;-68
2021/11/11 00:19:24;;;;;;;7.87;4.75;;;;;;;3.44;48.44;102309.38;1760997;80;21067;-68
2021/11/11 00:21:52;;;;;;;8.33;4.92;;;;;;;3.44;48.53;102305.41;1760873;81;21946;-68
2021/11/11 00:24:19;;;;;;;9.75;5.62;;;;;;;3.43;48.59;102308.56;1760588;80;21034;-68
2021/11/11 00:26:48;;;;;;;7.90;4.80;;;;;;;3.44;48.67;102298.31;1777105;78;21631;-69
2021/11/11 00:29:15;;;;;;;8.70;5.40;;;;;;;3.43;48.68;102294.03;1767183;81;21455;-68
2021/11/11 00:31:42;;;;;;;9.48;5.42;;;;;;;3.46;48.69;102292.38;1791010;80;21130;-69
2021/11/11 00:34:08;;;;;;;9.68;5.37;;;;;;;3.48;48.71;102293.52;1776565;79;21135;-69
2021/11/11 00:36:36;;;;;;;10.03;5.33;;;;;;;3.47;48.74;102287.41;1736102;82;21062;-68
2021/11/11 00:39:03;;;;;;;7.97;5.15;;;;;;;3.47;48.71;102292.70;1735274;81;21042;-68
2021/11/11 00:41:31;;;;;;;9.10;5.45;;;;;;;3.47;48.75;102288.73;1761002;81;21097;-68
2021/11/11 00:43:58;;;;;;;9.00;5.20;;;;;;;3.44;48.78;102283.78;1761793;81;21022;-69
2021/11/11 00:46:24;;;;;;;8.48;5.28;;;;;;;3.43;48.85;102280.00;1767961;81;21945;-69
2021/11/11 00:48:51;;;;;;;8.55;5.22;;;;;;;3.42;48.90;102275.22;1767899;81;21011;-69
2021/11/11 00:51:17;;;;;;;9.83;5.22;;;;;;;3.41;48.95;102275.38;1768056;81;20964;-69
2021/11/11 00:53:46;;;;;;;7.95;5.00;;;;;;;3.39;48.98;102276.88;1767729;81;21070;-69
2021/11/11 00:56:12;;;;;;;9.78;5.70;;;;;;;3.37;49.10;102280.66;1768084;81;21091;-69
2021/11/11 00:58:41;;;;;;;9.80;5.08;;;;;;;3.35;49.21;102282.64;1767646;79;21216;-69
2021/11/11 01:01:08;;;;;;;9.73;5.37;;;;;;;3.34;49.28;102273.89;1737882;82;21617;-69
2021/11/11 01:03:40;;;;;;;9.48;4.75;;;;;;;3.33;49.30;102268.80;1735946;82;21030;-69
2021/11/11 01:06:09;;;;;;;;;;;;;;;3.31;49.38;102264.16;1740428;82;21048;-70
2021/11/11 01:08:37;;;;;;;9.48;5.05;;;;;;;3.28;49.48;102262.67;1770867;81;20138;-69
2021/11/11 01:11:05;;;;;;;8.15;4.87;;;;;;;3.25;49.52;102264.32;1771490;79;22128;-70
2021/11/11 01:13:33;;;;;;;8.45;4.97;;;;;;;3.24;49.58;102271.92;1770882;79;21151;-69
2021/11/11 01:16:01;;;;;;;8.93;4.67;;;;;;;3.23;49.65;102265.00;1771232;79;21101;-69
2021/11/11 01:18:29;;;;;;;9.33;5.22;;;;;;;3.20;49.75;102258.23;1770923;79;20967;-68
2021/11/11 01:20:57;;;;;;;8.70;5.25;;;;;;;3.18;49.82;102258.06;1771276;79;21433;-69
2021/11/11 01:23:24;;;;;;;10.23;5.60;;;;;;;3.17;49.90;102254.60;1771335;80;21088;-69
2021/11/11 01:25:51;;;;;;;8.60;5.28;;;;;;;3.16;50.01;102249.47;1771276;81;21104;-69
2021/11/11 01:28:18;;;;;;;7.45;4.97;;;;;;;3.14;50.04;102258.07;1771050;81;21148;-69
2021/11/11 01:30:45;;;;;;;9.38;5.72;;;;;;;3.12;50.12;102248.16;1771263;79;21537;-69
2021/11/11 01:33:15;;;;;;;9.30;5.40;;;;;;;3.11;50.23;102241.23;1769215;79;21042;-68
2021/11/11 01:35:41;;;;;;;9.60;5.53;;;;;;;3.10;50.30;102248.84;1771637;81;21128;-68
2021/11/11 01:38:10;;;;;;;8.63;5.20;;;;;;;3.09;50.37;102238.75;1770533;81;20946;-68
2021/11/11 01:40:36;;;;;;;8.65;4.87;;;;;;;3.08;50.41;102242.89;1771240;79;20971;-69
2021/11/11 01:43:06;;;;;;;8.40;5.70;;;;;;;3.06;50.50;102239.11;1770967;79;21426;-69
2021/11/11 01:45:40;;;;;;;8.33;5.03;;;;;;;3.04;50.58;102237.94;1771297;79;20939;-68
2021/11/11 01:48:15;;;;;;;9.90;5.60;;;;;;;3.01;50.61;102236.95;1762230;81;21167;-69
2021/11/11 01:50:43;;;;;;;11.00;5.87;;;;;;;3.01;50.72;102234.80;1754020;80;20984;-68
2021/11/11 01:53:11;;;;;;;8.85;5.65;;;;;;;2.98;50.79;102228.04;1733803;82;21047;-71
2021/11/11 01:55:42;;;;;;;9.43;5.80;;;;;;;2.97;50.87;102231.67;1741191;81;21106;-68
2021/11/11 01:58:09;;;;;;;8.10;5.37;;;;;;;2.95;50.90;102227.05;1755957;81;20944;-68
2021/11/11 02:00:43;;;;;;;10.72;6.03;;;;;;;2.96;50.94;102219.48;1756188;81;21160;-69
2021/11/11 02:03:13;;;;;;;9.50;5.60;;;;;;;2.96;50.94;102217.30;1740878;81;21523;-68
2021/11/11 02:05:45;;;;;;;9.13;5.30;;;;;;;2.96;51.01;102213.34;1749301;81;21011;-67
2021/11/11 02:08:14;;;;;;;8.10;5.15;;;;;;;2.95;51.01;102211.21;1761793;79;21710;-70
2021/11/11 02:10:43;;;;;;;11.03;5.78;;;;;;;2.96;51.06;102206.28;1787187;80;20999;-70
2021/11/11 02:13:11;;;;;;;9.58;5.67;;;;;;;2.94;51.12;102200.83;1786941;80;21144;-68
2021/11/11 02:15:39;;;;;;;9.43;5.53;;;;;;;2.95;51.17;102201.97;1787293;80;20935;-69
2021/11/11 02:18:08;;;;;;;8.35;5.40;;;;;;;2.94;51.21;102191.59;1769156;80;20988;-69
2021/11/11 02:20:39;;;;;;;8.83;5.30;;;;;;;2.93;51.34;102193.41;1756350;81;20980;-68
2021/11/11 02:23:17;;;;;;;11.20;5.70;;;;;;;2.92;51.39;102195.70;1755574;81;21054;-69
2021/11/11 02:25:56;;;;;;;8.90;5.20;;;;;;;2.92;51.39;102187.78;1755293;81;21257;-68
2021/11/11 02:28:24;;;;;;;8.75;5.80;;;;;;;2.93;51.47;102184.17;1756055;81;21020;-68
2021/11/11 02:30:53;;;;;;;14.95;5.92;;;;;;;2.90;51.52;102183.19;1756940;80;21087;-68
2021/11/11 02:33:25;;;;;;;9.23;5.22;;;;;;;2.88;51.59;102171.96;1786587;80;21631;-69
2021/11/11 02:35:53;;;;;;;9.88;5.37;;;;;;;2.86;51.72;102175.25;1784080;80;21054;-69
2021/11/11 02:38:20;;;;;;;8.20;5.30;;;;;;;2.86;51.80;102179.20;1787174;80;21121;-69
2021/11/11 02:40:47;;;;;;;9.53;5.80;;;;;;;2.82;51.86;102175.26;1786799;80;21114;-69
2021/11/11 02:43:15;;;;;;;8.28;5.28;;;;;;;2.79;51.94;102172.95;1787285;80;20991;-69
2021/11/11 02:45:46;;;;;;;8.63;5.33;;;;;;;2.80;52.00;102170.66;1787436;80;21455;-69
2021/11/11 02:48:15;;;;;;;9.15;5.33;;;;;;;2.80;52.06;102169.34;1760111;80;22020;-69
2021/11/11 02:50:44;;;;;;;9.45;5.20;;;;;;;2.78;52.14;102162.89;1754847;81;21161;-68
2021/11/11 02:53:12;;;;;;;8.23;5.05;;;;;;;2.77;52.20;102159.94;1755957;81;21521;-68
2021/11/11 02:55:41;;;;;;;8.73;5.05;;;;;;;2.74;52.29;102156.80;1758001;80;21035;-68
2021/11/11 02:58:09;;;;;;;9.48;5.47;;;;;;;2.75;52.33;102159.77;1755973;81;20956;-69
2021/11/11 03:00:48;;;;;;;8.90;5.20;;;;;;;2.73;52.33;102155.14;1756114;81;20996;-69
2021/11/11 03:03:17;;;;;;;8.58;4.97;;;;;;;2.73;52.38;102154.67;1757774;80;21101;-68
2021/11/11 03:05:44;;;;;;;10.88;5.40;;;;;;;2.78;52.28;102144.42;1756357;81;21032;-69
2021/11/11 03:08:13;;;;;;;8.33;5.30;;;;;;;2.80;52.29;102142.95;1755901;81;21000;-68
2021/11/11 03:10:45;;;;;;;7.53;4.90;;;;;;;2.79;52.31;102143.42;1756208;80;21568;-69
2021/11/11 03:13:15;;;;;;;9.30;5.28;;;;;;;2.80;52.30;102142.95;1757630;80;21284;-68
2021/11/11 03:15:42;;;;;;;8.38;4.60;;;;;;;2.77;52.33;102129.59;1756355;81;21129;-68
2021/11/11 03:18:11;;;;;;;7.15;4.72;;;;;;;2.77;52.39;102129.59;1756099;81;21007;-68
2021/11/11 03:20:40;;;;;;;8.35;5.30;;;;;;;2.76;52.46;102121.36;1756187;81;21051;-69
2021/11/11 03:23:07;;;;;;;8.68;5.12;;;;;;;2.76;52.50;102117.40;1757519;80;20953;-68
2021/11/11 03:25:35;;;;;;;9.10;5.53;;;;;;;2.78;52.52;102127.77;1756289;81;21003;-69
2021/11/11 03:28:03;;;;;;;9.15;5.50;;;;;;;2.80;52.52;102127.12;1757887;79;21177;-69
2021/11/11 03:30:33;;;;;;;9.50;5.28;;;;;;;2.78;52.47;102118.03;1757914;80;21047;-69
2021/11/11 03:33:01;;;;;;;7.55;4.90;;;;;;;2.80;52.51;102123.16;1757602;80;21051;-68
2021/11/11 03:35:30;;;;;;;8.28;4.58;;;;;;;2.77;52.54;102110.30;1755727;81;21000;-68
2021/11/11 03:38:00;;;;;;;8.98;5.05;;;;;;;2.72;52.69;102114.74;1758067;80;21051;-69
2021/11/11 03:40:32;;;;;;;7.33;4.70;;;;;;;2.67;52.85;102110.48;1779457;80;21131;-68
2021/11/11 03:42:59;;;;;;;11.25;5.37;;;;;;;2.66;52.89;102111.45;1761845;80;21512;-68
2021/11/11 03:45:28;;;;;;;9.43;5.17;;;;;;;2.65;52.95;102107.17;1733911;81;20991;-68
2021/11/11 03:47:57;;;;;;;10.35;5.40;;;;;;;2.71;52.86;102104.37;1775702;78;21612;-68
2021/11/11 03:50:26;;;;;;;9.98;6.15;;;;;;;2.71;52.88;102101.73;1773892;80;21082;-68
2021/11/11 03:52:55;;;;;;;9.18;5.47;;;;;;;2.71;52.93;102100.41;1726845;81;21600;-68
2021/11/11 03:55:25;;;;;;;8.43;5.30;;;;;;;2.70;52.98;102089.51;1783049;78;21110;-68
2021/11/11 03:57:55;;;;;;;8.43;5.22;;;;;;;2.68;53.03;102087.55;1743349;81;21535;-68
2021/11/11 04:00:22;;;;;;;8.70;5.65;;;;;;;2.68;53.13;102086.23;1762803;80;21054;-69
2021/11/11 04:02:51;;;;;;;7.40;4.62;;;;;;;2.65;53.18;102072.05;1765964;81;21132;-69
2021/11/11 04:05:18;;;;;;;8.83;5.10;;;;;;;2.65;53.21;102068.09;1737722;81;21213;-68
2021/11/11 04:07:47;;;;;;;9.05;5.30;;;;;;;2.61;53.37;102070.75;1783968;78;21572;-69
2021/11/11 04:10:14;;;;;;;9.68;5.15;;;;;;;2.61;53.40;102069.43;1707189;82;21027;-68
2021/11/11 04:12:41;;;;;;;8.23;5.20;;;;;;;2.61;53.44;102063.66;1708146;82;21047;-69
2021/11/11 04:15:09;;;;;;;9.00;5.45;;;;;;;2.61;53.52;102051.78;1706848;84;20963;-69
2021/11/11 04:17:38;;;;;;;10.18;5.42;;;;;;;2.60;53.56;102042.23;1707962;82;20968;-69
2021/11/11 04:20:06;;;;;;;9.13;5.67;;;;;;;2.62;53.63;102040.73;1737847;81;20971;-69
2021/11/11 04:22:34;;;;;;;9.43;5.85;;;;;;;2.63;53.68;102030.50;1706665;82;21521;-69
2021/11/11 04:25:03;;;;;;;11.28;5.60;;;;;;;2.64;53.69;102032.17;1707110;84;21054;-69
2021/11/11 04:27:40;;;;;;;8.05;5.15;;;;;;;2.66;53.71;102027.53;1758428;81;20959;-69
2021/11/11 04:32:33;;;;;;;7.42;4.83;;;;;;;2.69;53.65;102015.32;1708100;82;21055;-69
2021/11/11 04:35:01;;;;;;;7.75;4.78;;;;;;;2.70;53.64;102017.81;1738228;81;21049;-69
2021/11/11 04:37:31;;;;;;;8.35;5.40;;;;;;;2.69;53.65;102008.23;1735539;81;21129;-69
2021/11/11 04:42:54;;;;;;;8.68;5.22;;;;;;;2.68;53.65;102020.28;1737779;81;21149;-69
2021/11/11 05:01:09;;;;;;;7.85;4.97;;;;;;;2.70;53.64;102015.17;1737712;81;20980;-68
2021/11/11 05:05:48;;;;;;;7.30;5.10;;;;;;;2.73;53.47;102008.23;1736545;82;21010;-69
2021/11/11 05:08:16;;;;;;;7.25;4.72;;;;;;;2.75;53.41;102008.88;1765859;81;22387;-70
2021/11/11 05:10:44;;;;;;;8.50;5.08;;;;;;;2.74;53.39;102005.09;1737923;81;21530;-68
2021/11/11 05:13:11;;;;;;;8.48;5.50;;;;;;;2.75;53.41;102009.37;1768161;81;21007;-69
2021/11/11 05:15:39;;;;;;;7.55;5.25;;;;;;;2.75;53.38;102010.19;1766111;81;20967;-69
2021/11/11 05:18:06;;;;;;;8.33;4.90;;;;;;;2.75;53.34;102004.91;1737664;81;21036;-69
2021/11/11 05:20:35;;;;;;;7.67;4.80;;;;;;;2.77;53.36;102002.94;1736076;81;21184;-69
2021/11/11 05:23:02;;;;;;;7.78;5.10;;;;;;;2.80;53.26;102011.84;1737717;82;21005;-69
2021/11/11 05:25:31;;;;;;;9.80;5.20;;;;;;;2.81;53.24;102010.02;1768366;79;21058;-69
2021/11/11 05:27:58;;;;;;;7.70;4.80;;;;;;;2.85;53.19;102020.55;1736324;81;21047;-69
2021/11/11 05:30:25;;;;;;;8.03;4.58;;;;;;;2.89;53.12;102017.89;1737710;81;21072;-69
2021/11/11 05:32:54;;;;;;;8.25;4.72;;;;;;;2.93;53.04;102020.54;1768077;81;21054;-68
2021/11/11 05:35:23;;;;;;;7.12;4.90;;;;;;;2.97;53.05;102020.52;1765958;79;20986;-69
2021/11/11 05:37:50;;;;;;;8.05;4.95;;;;;;;3.01;53.07;102021.81;1737636;81;21020;-69
2021/11/11 05:40:19;;;;;;;8.73;4.65;;;;;;;3.04;53.01;102021.48;1736109;82;21542;-68
2021/11/11 05:42:46;;;;;;;8.98;5.10;;;;;;;3.09;52.93;102016.17;1733135;81;21087;-68
2021/11/11 05:45:15;;;;;;;10.75;5.40;;;;;;;3.13;52.86;102016.18;1768161;81;21198;-68
2021/11/11 05:47:42;;;;;;;7.62;4.60;;;;;;;3.17;52.68;102022.25;1771842;80;21510;-69
2021/11/11 05:50:11;;;;;;;7.60;5.00;;;;;;;3.23;52.66;102021.57;1737752;80;21016;-69
2021/11/11 05:52:38;;;;;;;6.83;4.58;;;;;;;3.29;52.57;102012.11;1754059;80;21085;-70
2021/11/11 05:55:06;;;;;;;8.48;5.10;;;;;;;3.35;52.47;102013.25;1768748;80;21070;-69
2021/11/11 05:57:35;;;;;;;8.90;4.95;;;;;;;3.39;52.39;102020.67;1759018;81;21133;-69
2021/11/11 06:00:05;;;;;;;7.47;5.15;;;;;;;3.46;52.30;102008.91;1768260;81;21593;-69
2021/11/11 06:02:33;;;;;;;8.08;5.50;;;;;;;3.52;52.19;102006.87;1766041;79;21517;-70
2021/11/11 06:05:01;;;;;;;8.60;5.20;;;;;;;3.57;52.05;102003.22;1768144;81;21175;-69
2021/11/11 06:07:30;;;;;;;8.33;5.10;;;;;;;3.64;51.98;101993.59;1767909;79;21449;-69
2021/11/11 06:09:57;;;;;;;7.53;5.12;;;;;;;3.70;51.96;101981.50;1771840;80;21093;-69
2021/11/11 06:12:24;;;;;;;8.60;5.30;;;;;;;3.78;51.80;101983.25;1788318;80;21058;-69
2021/11/11 06:14:51;;;;;;;9.25;5.30;;;;;;;3.84;51.75;101981.23;1788042;80;21014;-69
2021/11/11 06:17:18;;;;;;;8.95;5.58;;;;;;;3.89;51.67;101981.02;1788349;79;21183;-69
2021/11/11 06:19:46;;;;;;;8.13;5.03;;;;;;;3.96;51.61;101981.14;1788063;80;21011;-70
2021/11/11 06:22:13;;;;;;;9.93;5.33;;;;;;;4.03;51.52;101978.60;1788059;80;21099;-68
2021/11/11 06:24:40;;;;;;;9.35;5.83;;;;;;;4.12;51.41;101982.31;1759850;80;20996;-69
2021/11/11 06:27:08;;;;;;;9.55;4.87;;;;;;;4.18;51.39;101978.96;1788010;80;21015;-70
2021/11/11 06:29:36;;;;;;;7.00;5.00;;;;;;;4.27;51.36;101978.87;1788074;80;21042;-70
2021/11/11 06:32:05;;;;;;;9.33;5.17;;;;;;;4.35;51.27;101983.59;1788536;80;21059;-69
2021/11/11 06:34:33;;;;;;;8.38;5.20;;;;;;;4.42;51.19;101986.33;1788165;80;21892;-69
2021/11/11 06:37:02;;;;;;;10.18;5.40;;;;;;;4.49;51.08;101981.95;1788081;80;21051;-69
2021/11/11 06:39:29;;;;;;;8.25;5.28;;;;;;;4.57;50.93;101985.82;1788104;80;21055;-68
2021/11/11 06:41:56;;;;;;;8.28;5.25;;;;;;;4.63;50.79;101975.84;1788135;80;21498;-68
2021/11/11 06:44:24;;;;;;;9.85;5.00;;;;;;;4.70;50.71;101969.31;1788191;80;21568;-69
2021/11/11 06:46:51;;;;;;;8.23;5.40;;;;;;;4.75;50.65;101962.98;1789514;80;21129;-68
2021/11/11 06:49:18;;;;;;;8.13;5.35;;;;;;;4.82;50.60;101962.55;1789428;80;21006;-70
2021/11/11 06:51:44;;;;;;;8.13;4.83;;;;;;;4.86;50.21;101957.20;1790170;80;21047;-70
2021/11/11 06:54:11;;;;;;;8.00;5.25;;;;;;;4.91;50.09;101944.75;1789733;80;21556;-69
2021/11/11 06:56:38;;;;;;;9.43;5.35;;;;;;;4.97;50.06;101937.88;1789757;80;21561;-69
2021/11/11 06:59:04;;;;;;;8.70;5.05;;;;;;;5.01;50.08;101937.34;1789680;80;21121;-69
2021/11/11 07:01:32;;;;;;;7.70;4.92;;;;;;;5.07;49.85;101937.11;1789751;80;21090;-69
2021/11/11 07:04:00;;;;;;;8.23;5.47;;;;;;;5.12;49.68;101938.16;1789735;80;21502;-70
2021/11/11 07:06:27;;;;;;;6.92;4.90;;;;;;;5.20;49.52;101933.28;1789762;80;21002;-70
2021/11/11 07:08:54;;;;;;;7.37;5.10;;;;;;;5.27;49.51;101930.70;1789680;80;21553;-69
2021/11/11 07:11:21;;;;;;;10.45;6.05;;;;;;;5.38;49.40;101931.52;1790122;80;21158;-69
2021/11/11 07:13:48;;;;;;;9.88;5.53;;;;;;;5.47;48.91;101933.04;1789563;80;20996;-70
2021/11/11 07:16:15;;;;;;;7.83;5.17;;;;;;;5.55;48.88;101938.70;1789948;80;20966;-70
2021/11/11 07:18:42;;;;;;;6.70;4.62;;;;;;;5.63;48.74;101943.89;1789597;79;21608;-70
2021/11/11 07:21:09;;;;;;;7.58;4.50;;;;;;;5.73;48.67;101933.79;1789794;80;21589;-70
2021/11/11 07:23:36;;;;;;;7.55;4.60;;;;;;;5.84;48.59;101931.93;1789550;80;21114;-70
2021/11/11 07:26:03;;;;;;;7.37;4.95;;;;;;;5.94;48.13;101920.21;1789766;80;21030;-70
2021/11/11 07:28:31;;;;;;;6.95;4.45;;;;;;;6.00;48.02;101920.26;1789535;80;20999;-69
2021/11/11 07:30:57;;;;;;;6.75;4.25;;;;;;;6.09;48.06;101922.27;1790115;80;20999;-70
2021/11/11 07:33:26;;;;;;;6.42;4.40;;;;;;;6.19;47.99;101927.23;1789404;80;21156;-70
2021/11/11 07:35:53;;;;;;;5.60;3.90;;;;;;;6.27;47.87;101922.58;1789751;80;22058;-70
2021/11/11 07:38:21;;;;;;;7.55;4.53;;;;;;;6.36;47.75;101915.80;1789434;80;21086;-70
2021/11/11 07:40:48;;;;;;;7.75;5.10;;;;;;;6.44;47.40;101925.73;1789828;80;21015;-70
2021/11/11 07:43:15;;;;;;;7.33;4.03;;;;;;;6.49;47.34;101919.34;1789547;80;21019;-70
2021/11/11 07:45:46;;;;;;;6.80;4.90;;;;;;;6.57;47.15;101923.66;1765001;80;20962;-70
2021/11/11 07:48:13;;;;;;;8.60;4.80;;;;;;;6.65;47.20;101920.05;1758362;81;21870;-69
2021/11/11 07:50:41;;;;;;;8.68;5.53;;;;;;;6.73;47.23;101918.02;1758672;81;21101;-70
2021/11/11 07:53:10;;;;;;;6.80;4.33;;;;;;;6.83;47.13;101914.19;1758573;81;21043;-69
2021/11/11 07:55:39;;;;;;;8.63;5.00;;;;;;;6.91;46.95;101907.35;1758563;81;20962;-69
2021/11/11 07:58:07;;;;;;;9.00;4.97;;;;;;;6.94;46.79;101916.25;1758771;81;21044;-69
2021/11/11 08:00:35;;;;;;;7.45;4.95;;;;;;;6.95;46.57;101918.73;1758529;81;21786;-70
2021/11/11 08:03:02;;;;;;;7.45;4.80;;;;;;;7.00;46.68;101920.77;1758215;81;21080;-70
2021/11/11 08:05:32;;;;;;;9.65;5.45;;;;;;;7.09;46.34;101905.48;1758608;81;21045;-70
2021/11/11 08:07:59;;;;;;;8.68;4.80;;;;;;;7.14;46.25;101905.20;1758265;81;21061;-68
2021/11/11 08:10:25;;;;;;;7.50;4.85;;;;;;;7.25;46.15;101911.75;1758550;81;21053;-69
2021/11/11 08:12:54;;;;;;;8.18;5.05;;;;;;;7.35;46.13;101890.10;1758453;81;21387;-68
2021/11/11 08:15:22;;;;;;;6.90;4.90;;;;;;;7.37;45.68;101888.05;1779269;78;21573;-69
2021/11/11 08:17:50;;;;;;;6.78;4.58;;;;;;;7.40;45.48;101890.30;1782198;79;21573;-68
2021/11/11 08:20:18;;;;;;;8.15;4.80;;;;;;;7.45;45.86;101884.69;1789540;80;21046;-69
2021/11/11 08:22:45;;;;;;;5.67;4.20;;;;;;;7.53;45.44;101887.65;1789761;80;21138;-69
2021/11/11 08:25:13;;;;;;;8.90;4.97;;;;;;;7.59;45.36;101894.00;1789589;80;21131;-69
2021/11/11 08:27:41;;;;;;;6.80;4.37;;;;;;;7.65;45.06;101886.02;1789554;80;21572;-69
2021/11/11 08:30:11;;;;;;;6.65;4.75;;;;;;;7.76;44.58;101887.23;1789590;80;20972;-70
2021/11/11 08:32:40;;;;;;;11.28;4.47;;;;;;;7.82;44.48;101883.77;1789858;80;21098;-71
2021/11/11 08:35:08;;;;;;;6.50;4.50;;;;;;;7.89;43.88;101887.23;1789706;80;21035;-71
2021/11/11 08:37:36;;;;;;;7.20;4.70;;;;;;;7.97;43.78;101880.38;1789808;80;21196;-71
2021/11/11 08:40:05;;;;;;;6.35;4.45;;;;;;;8.02;43.84;101881.08;1789646;80;21011;-70
2021/11/11 08:42:31;;;;;;;6.22;4.60;;;;;;;8.17;43.93;101884.33;1789908;80;21561;-69
2021/11/11 08:44:59;;;;;;;7.42;4.67;;;;;;;8.27;43.34;101871.11;1761113;80;21054;-71
2021/11/11 08:47:26;;;;;;;6.55;4.30;;;;;;;8.30;42.56;101871.51;1789754;80;21081;-71
2021/11/11 08:49:55;;;;;;;6.50;4.33;;;;;;;8.28;42.48;101864.75;1789725;80;21218;-70
2021/11/11 08:52:23;;;;;;;6.90;4.05;;;;;;;8.33;42.89;101849.80;1789980;80;21073;-70
2021/11/11 08:54:51;;;;;;;7.65;4.37;;;;;;;8.43;43.22;101853.38;1789706;80;21007;-71
2021/11/11 08:57:18;;;;;;;6.90;4.78;;;;;;;8.51;43.04;101846.47;1789444;80;21002;-69
2021/11/11 08:59:51;;;;;;;6.85;4.47;;;;;;;8.57;43.02;101846.95;1789667;80;21011;-70
2021/11/11 09:02:14;;;;;;;6.70;4.53;;;;;;;8.63;42.89;101839.97;1788626;80;22045;-69
2021/11/11 09:04:42;;;;;;;6.25;4.37;;;;;;;8.68;42.35;101841.47;1789620;80;21077;-70
2021/11/11 09:07:10;;;;;;;8.88;4.58;;;;;;;8.67;42.63;101838.52;1789622;80;20999;-70
2021/11/11 09:09:37;;;;;;;6.05;4.10;;;;;;;8.73;42.60;101832.86;1789603;80;20963;-70
2021/11/11 09:12:05;;;;;;;6.87;4.60;;;;;;;8.78;42.71;101835.16;1790076;80;21093;-70
2021/11/11 09:14:32;;;;;;;6.95;4.33;;;;;;;8.81;42.41;101822.75;1789607;80;21560;-69
2021/11/11 09:16:59;;;;;;;6.37;4.35;;;;;;;8.88;42.27;101820.89;1789880;80;21451;-69
2021/11/11 09:19:25;;;;;;;5.90;3.87;;;;;;;8.98;42.46;101814.25;1789410;79;21023;-69
2021/11/11 09:21:52;;;;;;;7.08;4.20;;;;;;;9.12;42.54;101809.14;1789619;80;21098;-70
2021/11/11 09:24:19;;;;;;;5.87;4.35;;;;;;;9.23;42.35;101800.95;1789785;80;21629;-70
2021/11/11 09:26:46;;;;;;;6.67;4.25;;;;;;;9.26;42.12;101792.52;1789685;80;21090;-71
2021/11/11 09:29:12;;;;;;;6.62;4.17;;;;;;;9.29;41.87;101788.09;1789664;80;21501;-71
2021/11/11 09:31:39;;;;;;;5.87;4.00;;;;;;;9.42;41.47;101781.83;1789720;80;21071;-70
2021/11/11 09:34:06;;;;;;;5.72;3.92;;;;;;;9.49;41.09;101781.25;1789877;80;21102;-70
2021/11/11 09:36:34;;;;;;;5.65;3.42;;;;;;;9.53;41.08;101765.91;1789549;80;21070;-72
2021/11/11 09:39:03;;;;;;;6.35;4.08;;;;;;;9.52;40.85;101766.95;1789409;78;21483;-70
2021/11/11 09:41:31;;;;;;;7.75;4.00;;;;;;;9.56;41.03;101765.47;1781600;78;21039;-69
2021/11/11 09:43:58;;;;;;;6.42;4.08;;;;;;;9.71;40.44;101760.31;1758434;81;21436;-70
2021/11/11 09:46:25;;;;;;;5.22;3.77;;;;;;;9.76;40.69;101763.12;1758510;81;21013;-70
2021/11/11 09:48:53;;;;;;;7.78;3.87;;;;;;;9.84;40.60;101757.51;1758241;81;21009;-70
2021/11/11 09:51:22;;;;;;;5.83;3.72;;;;;;;9.94;40.60;101745.78;1756044;81;39318;-68
2021/11/11 09:53:57;;;;;;;5.83;3.75;;;;;;;10.01;40.70;101735.03;1758401;81;20998;-68
2021/11/11 09:59:05;;;;;;;6.35;3.55;;;;;;;10.21;39.70;101724.09;1758346;81;21492;-68
2021/11/11 10:01:31;;;;;;;5.58;3.05;;;;;;;10.23;39.76;101720.17;1758462;81;20998;-69
2021/11/11 10:03:58;;;;;;;4.70;3.20;;;;;;;10.31;38.97;101709.71;1758596;81;21046;-69
2021/11/11 10:06:27;;;;;;;5.08;3.17;;;;;;;10.41;37.91;101693.95;1758450;81;21126;-69
2021/11/11 10:08:56;;;;;;;4.65;2.85;;;;;;;10.47;37.45;101698.39;1774549;78;21006;-69
2021/11/11 10:11:38;;;;;;;5.67;3.10;;;;;;;10.54;37.58;101683.59;1771984;80;21058;-69
2021/11/11 10:14:07;;;;;;;5.33;3.10;;;;;;;10.60;36.88;101674.67;1762784;80;21000;-70
2021/11/11 10:16:47;;;;;;;5.85;3.10;;;;;;;10.61;36.75;101659.45;1761065;81;21740;-70
2021/11/11 10:19:15;;;;;;;4.37;2.58;;;;;;;10.63;36.63;101652.00;1760589;80;20943;-69
2021/11/11 10:21:51;;;;;;;5.00;3.00;;;;;;;10.63;37.08;101642.65;1760900;80;21081;-70
2021/11/11 10:24:48;;;;;;;5.03;2.87;;;;;;;10.72;37.71;101648.77;1760923;81;21224;-71
2021/11/11 10:27:27;;;;;;;5.50;3.20;;;;;;;10.85;37.61;101653.07;1761050;81;21038;-69
2021/11/11 10:30:18;;;;;;;5.55;3.10;;;;;;;10.93;37.31;101645.25;1760853;81;21123;-69
2021/11/11 10:33:09;;;;;;;6.12;3.33;;;;;;;10.97;37.70;101637.05;1760646;81;21094;-69
2021/11/11 10:35:38;;;;;;;5.72;3.33;;;;;;;11.02;37.75;101629.97;1760960;80;21476;-70
2021/11/11 10:38:15;;;;;;;5.12;3.15;;;;;;;11.11;37.13;101628.27;1743955;81;21570;-69
2021/11/11 10:40:45;;;;;;;5.55;3.12;;;;;;;11.14;37.30;101618.44;1762843;81;21109;-69
2021/11/11 10:43:21;;;;;;;5.42;2.90;;;;;;;11.21;37.60;101613.77;1789824;80;21311;-68
2021/11/11 10:45:52;;;;;;;4.80;3.00;;;;;;;11.28;37.33;101593.05;1736377;82;21050;-69
2021/11/11 10:48:23;;;;;;;4.90;3.10;;;;;;;11.35;37.16;101579.55;1765981;81;21533;-69
2021/11/11 10:50:59;;;;;;;5.03;3.02;;;;;;;11.39;36.98;101581.53;1737886;81;20997;-70
2021/11/11 10:53:30;;;;;;;5.47;3.00;;;;;;;11.46;37.46;101571.50;1768336;81;21530;-69
2021/11/11 10:56:00;;;;;;;4.35;2.87;;;;;;;11.55;37.68;101549.70;1766264;79;21073;-69
2021/11/11 10:58:33;;;;;;;5.62;2.87;;;;;;;11.69;37.67;101538.48;1737627;81;21095;-69
2021/11/11 11:01:07;;;;;;;5.10;3.08;;;;;;;11.80;37.00;101534.12;1736286;82;20979;-70
2021/11/11 11:03:43;;;;;;;5.75;3.60;;;;;;;11.88;37.32;101517.70;1737762;81;21017;-70
2021/11/11 11:06:18;;;;;;;5.15;3.00;;;;;;;11.95;36.84;101522.91;1789034;80;21165;-70
2021/11/11 11:08:51;;;;;;;6.83;3.60;;;;;;;12.00;37.17;101518.16;1736157;82;21125;-69
2021/11/11 11:11:36;;;;;;;6.22;3.10;;;;;;;12.05;36.95;101534.31;1765994;81;21557;-70
2021/11/11 11:14:13;;;;;;;4.70;3.25;;;;;;;12.01;36.81;101527.30;1737840;81;21531;-68
2021/11/11 11:16:40;;;;;;;5.40;3.60;;;;;;;11.89;36.49;101538.06;1768359;79;21002;-68
2021/11/11 11:19:09;;;;;;;6.55;3.22;;;;;;;11.77;36.67;101549.85;1789863;79;21423;-68
2021/11/11 11:21:41;;;;;;;5.37;3.55;;;;;;;11.67;36.92;101547.27;1736227;81;21114;-70
2021/11/11 11:24:12;;;;;;;5.92;3.40;;;;;;;11.60;36.75;101541.26;1737298;81;21136;-71
2021/11/11 11:26:49;;;;;;;5.72;3.22;;;;;;;11.61;36.75;101545.55;1737198;82;21093;-68
2021/11/11 11:29:25;;;;;;;5.47;3.62;;;;;;;11.61;36.89;101547.41;1737251;82;21546;-69
2021/11/11 11:32:07;;;;;;;6.37;3.47;;;;;;;11.59;36.91;101548.20;1737124;81;21470;-69
2021/11/11 11:34:39;;;;;;;5.20;3.15;;;;;;;11.60;36.89;101544.46;1737720;81;21135;-69
2021/11/11 11:37:13;;;;;;;4.90;3.22;;;;;;;11.66;36.64;101542.17;1736281;82;21011;-69
2021/11/11 11:39:47;;;;;;;6.17;2.98;;;;;;;11.74;36.44;101533.73;1737767;82;21644;-69
2021/11/11 11:42:20;;;;;;;6.53;3.30;;;;;;;11.78;35.65;101537.58;1736345;81;21003;-68
2021/11/11 11:44:50;;;;;;;5.85;3.30;;;;;;;11.82;35.55;101514.63;1737900;82;20992;-70
2021/11/11 11:50:28;;;;;;;5.60;3.50;;;;;;;11.91;35.14;101515.05;1737817;82;21040;-69
2021/11/11 11:53:05;;;;;;;6.53;3.70;;;;;;;11.88;34.97;101520.39;1736143;82;21018;-69
2021/11/11 11:55:40;;;;;;;6.12;3.15;;;;;;;11.85;35.14;101519.53;1738035;82;21075;-69
2021/11/11 12:03:29;;;;;;;7.12;3.08;;;;;;;11.94;35.65;101502.02;1736961;81;21059;-69
2021/11/11 12:14:22;;;;;;;6.72;3.47;;;;;;;12.02;35.45;101486.60;1746556;81;21577;-70
2021/11/11 12:28:45;;;;;;;6.25;3.40;;;;;;;11.87;34.76;101463.86;1761295;81;21084;-70
2021/11/11 12:40:08;;;;;;;6.30;3.55;;;;;;;11.68;35.15;101461.10;1785395;80;21035;-68
2021/11/11 12:42:52;;;;;;;7.50;3.72;;;;;;;11.71;35.21;101471.33;1736506;82;21059;-69
2021/11/11 12:45:34;;;;;;;7.70;3.60;;;;;;;11.78;35.22;101462.64;1765238;81;20987;-69